Time;durP1;ratioP1;P1;durP2;ratioP2;P2;SDS_P1;SDS_P2;PMS_P1;PMS_P2;Temp;Humidity;BMP_temperature;BMP_pressure;BME280_temperature;BME280_humidity;BME280_pressure;Samples;Min_cycle;Max_cycle;Signal;HPM_P1;HPM_P2
2023/06/30 00:00:37;;;;;;;;;;;;;;;20.37;55.71;99406.53;4495093;31;34612;-75
2023/06/30 00:03:06;;;;;;;;;;;;;;;20.40;55.65;99403.72;4494480;31;35066;-76
2023/06/30 00:05:37;;;;;;;;;;;;;;;20.42;55.69;99401.00;4499831;31;34089;-75
2023/06/30 00:08:08;;;;;;;;;;;;;;;20.34;55.91;99400.56;4493834;31;33464;-73
2023/06/30 00:10:38;;;;;;;;;;;;;;;20.49;55.43;99406.72;4494257;31;33272;-74
2023/06/30 00:13:07;;;;;;;;;;;;;;;20.36;55.65;99398.69;4494044;31;33811;-76
2023/06/30 00:15:36;;;;;;;;;;;;;;;20.11;56.59;99396.66;4493502;31;33910;-78
2023/06/30 00:18:08;;;;;;;;;;;;;;;20.15;56.19;99395.50;4499363;31;32905;-74
2023/06/30 00:20:40;;;;;;;;;;;;;;;20.14;56.12;99392.03;4499508;31;34150;-75
2023/06/30 00:23:13;;;;;;;;;;;;;;;20.30;55.81;99397.28;4492015;31;34179;-76
2023/06/30 00:26:06;;;;;;;;;;;;;;;20.31;55.81;99392.84;4494235;31;33778;-74
2023/06/30 00:28:36;;;;;;;;;;;;;;;20.29;55.75;99389.47;4498519;31;33516;-76
2023/06/30 00:31:05;;;;;;;;;;;;;;;20.08;56.31;99387.12;4499189;31;34838;-76
2023/06/30 00:33:39;;;;;;;;;;;;;;;20.19;55.94;99386.50;4493569;31;34219;-75
2023/06/30 00:36:11;;;;;;;;;;;;;;;20.08;56.25;99383.63;4493187;31;34651;-75
2023/06/30 00:38:41;;;;;;;;;;;;;;;20.22;56.03;99384.56;4496138;31;34072;-74
2023/06/30 00:41:12;;;;;;;;;;;;;;;20.13;56.22;99389.50;4499776;31;34884;-75
2023/06/30 00:43:43;;;;;;;;;;;;;;;20.26;55.67;99385.22;4499083;31;34571;-74
2023/06/30 00:46:14;;;;;;;;;;;;;;;20.28;55.74;99383.34;4493722;31;34346;-76
2023/06/30 00:48:43;;;;;;;;;;;;;;;20.26;55.73;99387.84;4493568;31;33127;-74
2023/06/30 00:51:14;;;;;;;;;;;;;;;20.15;56.15;99383.22;4493503;31;34012;-74
2023/06/30 00:53:44;;;;;;;;;;;;;;;20.09;56.25;99380.91;4498860;31;33763;-76
2023/06/30 00:56:15;;;;;;;;;;;;;;;20.02;56.53;99383.06;4493489;31;33274;-74
2023/06/30 00:58:43;;;;;;;;;;;;;;;19.95;56.51;99372.97;4494439;31;35145;-75
2023/06/30 01:01:16;;;;;;;;;;;;;;;20.01;56.22;99370.84;4494230;31;34239;-76
2023/06/30 01:03:47;;;;;;;;;;;;;;;20.03;56.26;99376.03;4493371;31;33797;-73
2023/06/30 01:06:17;;;;;;;;;;;;;;;19.93;56.54;99366.94;4498830;31;34146;-74
2023/06/30 01:08:50;;;;;;;;;;;;;;;19.92;56.55;99368.72;4494832;31;32753;-74
2023/06/30 01:11:26;;;;;;;;;;;;;;;19.90;56.49;99364.47;4495775;31;34531;-74
2023/06/30 01:14:02;;;;;;;;;;;;;;;19.76;57.05;99367.87;4494088;31;34298;-75
2023/06/30 01:16:31;;;;;;;;;;;;;;;19.94;56.48;99366.84;4498485;31;33817;-73
2023/06/30 01:19:01;;;;;;;;;;;;;;;19.97;56.26;99360.56;4495055;31;33226;-75
2023/06/30 01:21:30;;;;;;;;;;;;;;;19.81;56.70;99368.47;4497491;31;33159;-74
2023/06/30 01:24:04;;;;;;;;;;;;;;;19.91;56.67;99369.66;4508775;31;34018;-74
2023/06/30 01:26:35;;;;;;;;;;;;;;;19.85;56.81;99370.00;4508771;31;34857;-72
2023/06/30 01:29:06;;;;;;;;;;;;;;;19.81;56.51;99364.06;4514084;31;33715;-74
2023/06/30 01:31:37;;;;;;;;;;;;;;;19.73;57.05;99360.16;4509021;31;33937;-77
2023/06/30 01:34:06;;;;;;;;;;;;;;;19.75;56.98;99363.56;4508479;31;34327;-75
2023/06/30 01:36:35;;;;;;;;;;;;;;;19.83;56.62;99356.91;4508334;31;34733;-74
2023/06/30 01:39:09;;;;;;;;;;;;;;;19.79;56.85;99359.84;4513287;31;33089;-75
2023/06/30 01:41:40;;;;;;;;;;;;;;;19.82;56.77;99357.03;4514438;31;34944;-73
2023/06/30 01:44:09;;;;;;;;;;;;;;;19.79;56.77;99359.84;4511991;31;33143;-74
2023/06/30 01:46:38;;;;;;;;;;;;;;;19.79;56.68;99355.41;4510554;31;33937;-74
2023/06/30 01:49:11;;;;;;;;;;;;;;;19.73;56.64;99357.53;4512648;31;33435;-76
2023/06/30 01:51:39;;;;;;;;;;;;;;;19.76;56.52;99354.72;4516263;31;34306;-75
2023/06/30 01:54:11;;;;;;;;;;;;;;;19.73;56.63;99349.62;4510776;31;34469;-73
2023/06/30 01:56:49;;;;;;;;;;;;;;;19.80;56.50;99345.72;4510716;31;33228;-74
2023/06/30 01:59:20;;;;;;;;;;;;;;;19.67;56.78;99345.53;4516119;31;32388;-74
2023/06/30 02:01:52;;;;;;;;;;;;;;;19.61;57.02;99346.72;4498197;31;34170;-76
2023/06/30 02:04:22;;;;;;;;;;;;;;;19.61;56.99;99340.63;4500649;31;34887;-74
2023/06/30 02:06:52;;;;;;;;;;;;;;;19.59;57.16;99347.75;4494389;31;34207;-76
2023/06/30 02:09:44;;;;;;;;;;;;;;;19.75;56.39;99348.62;4497342;31;35094;-73
2023/06/30 02:12:25;;;;;;;;;;;;;;;19.64;57.00;99348.31;4495861;31;34412;-76
2023/06/30 02:14:54;;;;;;;;;;;;;;;19.66;56.79;99343.84;4494706;31;33891;-76
2023/06/30 02:17:26;;;;;;;;;;;;;;;19.64;56.99;99342.22;4500551;31;34088;-74
2023/06/30 02:19:55;;;;;;;;;;;;;;;19.52;57.39;99343.75;4495778;31;32904;-75
2023/06/30 02:22:25;;;;;;;;;;;;;;;19.49;57.15;99342.12;4503623;31;34140;-74
2023/06/30 02:24:56;;;;;;;;;;;;;;;19.56;56.97;99338.22;4502090;31;35670;-76
2023/06/30 02:27:27;;;;;;;;;;;;;;;19.48;57.37;99343.09;4496808;31;33746;-75
2023/06/30 02:30:04;;;;;;;;;;;;;;;19.34;57.79;99337.75;4515852;31;34438;-76
2023/06/30 02:32:37;;;;;;;;;;;;;;;19.55;57.10;99339.19;4499264;31;33934;-75
2023/06/30 02:35:10;;;;;;;;;;;;;;;19.48;57.29;99344.87;4494661;31;34056;-76
2023/06/30 02:37:39;;;;;;;;;;;;;;;19.48;57.42;99334.34;4495478;31;33497;-74
2023/06/30 02:40:09;;;;;;;;;;;;;;;19.49;57.09;99336.88;4500097;31;33385;-74
2023/06/30 02:42:41;;;;;;;;;;;;;;;19.47;57.33;99330.00;4500063;31;34824;-74
2023/06/30 02:45:14;;;;;;;;;;;;;;;19.39;57.46;99331.28;4494282;31;33874;-76
2023/06/30 02:47:43;;;;;;;;;;;;;;;19.27;57.72;99337.22;4495767;31;34230;-74
2023/06/30 02:50:13;;;;;;;;;;;;;;;19.42;57.37;99330.25;4495739;31;32879;-73
2023/06/30 02:52:44;;;;;;;;;;;;;;;19.51;56.88;99328.91;4499630;31;33788;-76
2023/06/30 02:55:13;;;;;;;;;;;;;;;19.45;57.19;99332.75;4494686;31;33447;-74
2023/06/30 02:57:43;;;;;;;;;;;;;;;19.47;57.17;99330.84;4493881;31;34157;-74
2023/06/30 03:00:15;;;;;;;;;;;;;;;19.53;56.82;99338.41;4496552;31;33815;-75
2023/06/30 03:02:44;;;;;;;;;;;;;;;19.49;56.63;99336.88;4495529;31;34527;-77
2023/06/30 03:05:14;;;;;;;;;;;;;;;19.34;57.20;99337.75;4500066;31;34280;-77
2023/06/30 03:07:44;;;;;;;;;;;;;;;19.36;57.12;99344.59;4494496;31;35129;-74
2023/06/30 03:10:19;;;;;;;;;;;;;;;19.17;57.86;99343.91;4496062;31;33790;-73
2023/06/30 03:12:51;;;;;;;;;;;;;;;19.15;57.92;99345.78;4494335;31;34661;-74
2023/06/30 03:15:25;;;;;;;;;;;;;;;19.22;57.53;99339.25;4499814;31;35348;-74
2023/06/30 03:17:56;;;;;;;;;;;;;;;19.09;57.73;99343.50;4494732;31;33573;-74
2023/06/30 03:20:31;;;;;;;;;;;;;;;19.16;57.63;99342.19;4494266;31;33560;-74
2023/06/30 03:23:00;;;;;;;;;;;;;;;19.26;57.44;99338.16;4494480;31;34101;-75
2023/06/30 03:25:32;;;;;;;;;;;;;;;19.39;56.95;99338.31;4494445;31;32956;-74
2023/06/30 03:28:06;;;;;;;;;;;;;;;19.42;56.88;99335.53;4499548;31;33703;-74
2023/06/30 03:30:37;;;;;;;;;;;;;;;19.39;57.12;99340.97;4497609;31;33106;-74
2023/06/30 03:33:07;;;;;;;;;;;;;;;19.39;56.98;99341.81;4493927;31;33641;-74
2023/06/30 03:35:40;;;;;;;;;;;;;;;19.40;56.74;99340.00;4493969;31;34794;-73
2023/06/30 03:38:10;;;;;;;;;;;;;;;19.43;56.73;99349.53;4497000;31;34001;-74
2023/06/30 03:40:39;;;;;;;;;;;;;;;19.55;56.59;99349.72;4500126;31;33787;-74
2023/06/30 03:43:11;;;;;;;;;;;;;;;19.11;58.14;99342.47;4495804;31;33873;-75
2023/06/30 03:45:42;;;;;;;;;;;;;;;19.42;57.13;99353.94;4493612;31;34152;-74
2023/06/30 03:48:11;;;;;;;;;;;;;;;19.45;57.45;99339.75;4495500;31;34501;-76
2023/06/30 03:50:41;;;;;;;;;;;;;;;19.56;56.83;99332.13;4499619;31;33841;-74
2023/06/30 03:53:15;;;;;;;;;;;;;;;19.54;56.79;99337.47;4494822;31;35287;-75
2023/06/30 03:55:44;;;;;;;;;;;;;;;19.59;56.65;99335.44;4493997;31;34673;-76
2023/06/30 03:58:16;;;;;;;;;;;;;;;19.52;57.03;99341.12;4479129;31;33752;-74
2023/06/30 04:00:46;;;;;;;;;;;;;;;19.69;56.86;99337.56;4494868;31;32873;-76
2023/06/30 04:03:16;;;;;;;;;;;;;;;19.88;56.18;99343.50;4499691;31;33135;-76
2023/06/30 04:05:45;;;;;;;;;;;;;;;19.84;56.63;99336.72;4493968;31;35153;-75
2023/06/30 04:08:15;;;;;;;;;;;;;;;19.93;56.47;99336.19;4493194;31;34105;-76
2023/06/30 04:10:44;;;;;;;;;;;;;;;20.06;56.09;99333.72;4493972;31;34012;-75
2023/06/30 04:13:21;;;;;;;;;;;;;;;20.10;56.30;99343.09;4499079;31;33609;-76
2023/06/30 04:15:51;;;;;;;;;;;;;;;20.23;55.84;99338.84;4495651;31;35799;-76
2023/06/30 04:18:23;;;;;;;;;;;;;;;20.42;55.35;99332.50;4495422;31;34231;-75
2023/06/30 04:20:52;;;;;;;;;;;;;;;20.33;55.60;99338.31;4496587;31;33397;-73
2023/06/30 04:23:22;;;;;;;;;;;;;;;20.42;55.82;99335.12;4491742;31;34480;-75
2023/06/30 04:25:50;;;;;;;;;;;;;;;20.48;55.56;99331.25;4515162;31;33829;-73
2023/06/30 04:28:20;;;;;;;;;;;;;;;20.90;54.50;99327.84;4509689;31;34775;-77
2023/06/30 04:30:48;;;;;;;;;;;;;;;21.17;53.86;99332.38;4513967;31;34141;-76
2023/06/30 04:33:19;;;;;;;;;;;;;;;21.66;51.85;99340.66;4509201;31;34010;-76
2023/06/30 04:35:51;;;;;;;;;;;;;;;22.28;50.75;99332.22;4515119;31;33999;-76
2023/06/30 04:38:27;;;;;;;;;;;;;;;23.04;48.96;99332.38;4510917;31;33783;-75
2023/06/30 04:40:56;;;;;;;;;;;;;;;24.06;46.16;99337.31;4510500;31;33396;-76
2023/06/30 04:43:27;;;;;;;;;;;;;;;25.00;43.73;99325.69;4509330;31;34911;-75
2023/06/30 04:45:57;;;;;;;;;;;;;;;25.63;42.16;99331.31;4509041;31;34451;-75
2023/06/30 04:48:29;;;;;;;;;;;;;;;25.95;41.33;99326.06;4515241;31;34133;-75
2023/06/30 04:50:58;;;;;;;;;;;;;;;26.67;40.04;99323.63;4510471;31;33081;-76
2023/06/30 04:53:27;;;;;;;;;;;;;;;27.28;39.08;99325.44;4509634;31;34057;-77
2023/06/30 04:55:59;;;;;;;;;;;;;;;27.63;38.10;99325.78;4509442;31;34950;-75
2023/06/30 04:58:33;;;;;;;;;;;;;;;28.25;37.21;99325.56;4511038;31;33439;-78
2023/06/30 05:01:04;;;;;;;;;;;;;;;28.20;37.03;99328.66;4514584;31;34042;-75
2023/06/30 05:03:34;;;;;;;;;;;;;;;28.50;36.68;99316.97;4495912;31;34215;-75
2023/06/30 05:06:03;;;;;;;;;;;;;;;29.17;35.70;99311.56;4493451;31;33072;-75
2023/06/30 05:08:33;;;;;;;;;;;;;;;29.20;35.88;99313.09;4496079;31;33740;-75
2023/06/30 05:11:01;;;;;;;;;;;;;;;29.49;35.58;99321.78;4498292;31;34102;-75
2023/06/30 05:13:33;;;;;;;;;;;;;;;29.16;36.29;99315.22;4494351;31;34240;-78
2023/06/30 05:16:02;;;;;;;;;;;;;;;29.60;35.28;99310.03;4493540;31;34706;-77
2023/06/30 05:18:31;;;;;;;;;;;;;;;29.20;36.33;99307.75;4495844;31;34513;-76
2023/06/30 05:21:08;;;;;;;;;;;;;;;29.25;36.11;99311.66;4497965;31;33412;-77
2023/06/30 05:23:39;;;;;;;;;;;;;;;29.32;36.11;99312.72;4504162;31;34002;-75
2023/06/30 05:26:10;;;;;;;;;;;;;;;29.18;36.44;99310.56;4511041;31;34050;-77
2023/06/30 05:28:42;;;;;;;;;;;;;;;28.98;36.75;99315.13;4511232;31;33629;-75
2023/06/30 05:31:27;;;;;;;;;;;;;;;28.88;36.75;99320.50;4497252;31;33365;-77
2023/06/30 05:34:06;;;;;;;;;;;;;;;28.42;37.59;99316.84;4495105;31;33716;-74
2023/06/30 05:36:35;;;;;;;;;;;;;;;28.21;37.79;99321.50;4500629;31;34913;-77
2023/06/30 05:39:06;;;;;;;;;;;;;;;28.66;36.76;99312.88;4495334;31;34516;-76
2023/06/30 05:41:34;;;;;;;;;;;;;;;28.65;36.59;99316.50;4495704;31;33151;-74
2023/06/30 05:44:09;;;;;;;;;;;;;;;28.35;37.42;99320.22;4495065;31;34553;-76
2023/06/30 05:46:38;;;;;;;;;;;;;;;28.41;37.48;99320.47;4500735;31;33998;-75
2023/06/30 05:49:09;;;;;;;;;;;;;;;28.50;36.92;99324.97;4499770;31;34936;-74
2023/06/30 05:51:39;;;;;;;;;;;;;;;28.36;37.05;99322.72;4493926;31;34018;-77
2023/06/30 05:54:10;;;;;;;;;;;;;;;28.52;37.30;99324.84;4494912;31;33079;-74
2023/06/30 05:56:39;;;;;;;;;;;;;;;28.16;38.52;99327.25;4495474;31;34308;-75
2023/06/30 05:59:13;;;;;;;;;;;;;;;28.71;37.15;99323.97;4500245;31;34877;-76
2023/06/30 06:01:42;;;;;;;;;;;;;;;28.68;37.10;99326.91;4498363;31;33197;-75
2023/06/30 06:04:13;;;;;;;;;;;;;;;27.78;38.93;99328.91;4495035;31;33950;-77
2023/06/30 06:06:43;;;;;;;;;;;;;;;27.62;39.63;99321.47;4495110;31;33448;-77
2023/06/30 06:09:13;;;;;;;;;;;;;;;27.33;40.35;99326.75;4500133;31;33891;-75
2023/06/30 06:11:43;;;;;;;;;;;;;;;27.22;40.90;99324.16;4500519;31;33120;-78
2023/06/30 06:14:19;;;;;;;;;;;;;;;27.13;40.89;99323.13;4494781;31;34374;-74
2023/06/30 06:16:48;;;;;;;;;;;;;;;26.53;41.54;99314.13;4495288;31;34987;-76
2023/06/30 06:19:20;;;;;;;;;;;;;;;26.55;43.08;99321.03;4496970;31;33729;-75
2023/06/30 06:21:52;;;;;;;;;;;;;;;26.27;43.77;99317.19;4499622;31;32559;-75
2023/06/30 06:24:26;;;;;;;;;;;;;;;26.50;42.29;99317.88;4497796;31;33855;-74
2023/06/30 06:26:59;;;;;;;;;;;;;;;26.50;42.07;99317.06;4495394;31;33782;-76
2023/06/30 06:29:28;;;;;;;;;;;;;;;26.41;42.83;99321.38;4494406;31;34214;-74
2023/06/30 06:32:02;;;;;;;;;;;;;;;26.54;42.58;99318.53;4494277;31;32291;-74
2023/06/30 06:34:34;;;;;;;;;;;;;;;26.42;42.81;99319.53;4499504;31;35001;-75
2023/06/30 06:37:06;;;;;;;;;;;;;;;26.43;41.83;99310.56;4494455;31;32573;-76
2023/06/30 06:39:38;;;;;;;;;;;;;;;26.20;43.02;99307.22;4492977;31;33486;-75
2023/06/30 06:42:11;;;;;;;;;;;;;;;26.46;42.78;99307.66;4494150;31;33023;-77
2023/06/30 06:44:40;;;;;;;;;;;;;;;26.77;40.74;99311.19;4493221;31;34120;-74
2023/06/30 06:47:30;;;;;;;;;;;;;;;26.39;41.27;99304.69;4499978;31;34010;-76
2023/06/30 06:50:00;;;;;;;;;;;;;;;26.77;41.30;99309.41;4495227;31;34302;-75
2023/06/30 06:52:32;;;;;;;;;;;;;;;26.69;40.88;99309.22;4496900;31;33117;-75
2023/06/30 06:55:02;;;;;;;;;;;;;;;26.70;42.29;99307.37;4493706;31;33791;-76
2023/06/30 06:57:32;;;;;;;;;;;;;;;26.88;40.58;99302.31;4495806;31;35027;-76
2023/06/30 07:00:02;;;;;;;;;;;;;;;26.95;41.79;99311.44;4498903;31;33717;-75
2023/06/30 07:02:33;;;;;;;;;;;;;;;26.78;41.87;99308.41;4489638;31;32536;-75
2023/06/30 07:05:03;;;;;;;;;;;;;;;26.99;40.83;99302.19;4496834;31;33001;-75
2023/06/30 07:07:36;;;;;;;;;;;;;;;27.32;41.17;99303.72;4494450;31;33542;-75
2023/06/30 07:10:05;;;;;;;;;;;;;;;27.26;40.98;99306.13;4499132;31;33969;-77
2023/06/30 07:12:34;;;;;;;;;;;;;;;27.37;39.86;99309.47;4496236;31;33804;-75
2023/06/30 07:15:04;;;;;;;;;;;;;;;27.21;40.31;99307.34;4493928;31;34389;-76
2023/06/30 07:17:33;;;;;;;;;;;;;;;27.26;40.07;99312.28;4494145;31;34667;-74
2023/06/30 07:20:06;;;;;;;;;;;;;;;27.35;40.05;99307.94;4494722;31;33247;-77
2023/06/30 07:22:41;;;;;;;;;;;;;;;27.31;39.92;99307.37;4499589;31;33891;-77
2023/06/30 07:25:09;;;;;;;;;;;;;;;27.23;38.72;99301.88;4492565;31;34670;-75
2023/06/30 07:27:41;;;;;;;;;;;;;;;27.54;39.70;99302.63;4497060;31;35495;-75
2023/06/30 07:30:12;;;;;;;;;;;;;;;27.59;39.61;99297.75;4495549;31;34240;-77
2023/06/30 07:32:42;;;;;;;;;;;;;;;27.52;39.82;99296.62;4498987;31;32946;-75
2023/06/30 07:35:11;;;;;;;;;;;;;;;27.61;39.96;99295.78;4497786;31;35012;-76
2023/06/30 07:37:43;;;;;;;;;;;;;;;27.54;40.81;99299.97;4493896;31;33971;-75
2023/06/30 07:40:13;;;;;;;;;;;;;;;27.62;39.26;99307.31;4499084;31;33549;-74
2023/06/30 07:42:44;;;;;;;;;;;;;;;27.66;39.97;99298.88;4492479;31;33184;-75
2023/06/30 07:45:13;;;;;;;;;;;;;;;27.75;40.09;99297.19;4498878;31;34044;-77
2023/06/30 07:47:47;;;;;;;;;;;;;;;27.77;40.25;99305.06;4493676;31;34323;-75
2023/06/30 07:50:17;;;;;;;;;;;;;;;27.84;39.29;99300.87;4497326;31;33254;-77
2023/06/30 07:52:50;;;;;;;;;;;;;;;27.81;38.71;99298.44;4493506;31;32477;-76
2023/06/30 07:55:19;;;;;;;;;;;;;;;28.12;38.07;99303.66;4495371;31;33922;-75
2023/06/30 07:57:49;;;;;;;;;;;;;;;28.36;38.06;99288.03;4496357;31;35039;-77
2023/06/30 08:00:18;;;;;;;;;;;;;;;28.38;35.29;99293.25;4492239;31;33239;-77
2023/06/30 08:02:49;;;;;;;;;;;;;;;28.17;35.39;99293.41;4493467;31;32720;-76
2023/06/30 08:05:36;;;;;;;;;;;;;;;28.32;35.44;99288.47;4490996;31;34877;-75
2023/06/30 08:08:07;;;;;;;;;;;;;;;28.23;37.11;99282.19;4495926;31;35493;-76
2023/06/30 08:10:45;;;;;;;;;;;;;;;28.19;36.78;99283.44;4497087;31;34053;-77
2023/06/30 08:13:15;;;;;;;;;;;;;;;28.21;36.44;99282.31;4492078;31;33640;-77
2023/06/30 08:15:44;;;;;;;;;;;;;;;28.38;36.39;99282.56;4491612;31;33583;-77
2023/06/30 08:18:19;;;;;;;;;;;;;;;28.33;36.58;99276.84;4478836;31;32606;-76
2023/06/30 08:21:08;;;;;;;;;;;;;;;28.35;36.92;99273.03;4494128;31;33977;-76
2023/06/30 08:23:44;;;;;;;;;;;;;;;28.29;34.63;99269.13;4496525;31;33272;-76
2023/06/30 08:26:13;;;;;;;;;;;;;;;28.66;34.94;99272.84;4492827;31;34889;-75
2023/06/30 08:28:44;;;;;;;;;;;;;;;28.58;35.46;99275.38;4491258;31;34587;-75
2023/06/30 08:31:12;;;;;;;;;;;;;;;28.41;34.35;99272.44;4494485;31;34616;-76
2023/06/30 08:33:41;;;;;;;;;;;;;;;28.67;35.84;99277.19;4497616;31;33129;-76
2023/06/30 08:36:12;;;;;;;;;;;;;;;28.71;34.22;99274.06;4491527;31;34466;-77
2023/06/30 08:38:42;;;;;;;;;;;;;;;28.62;34.10;99272.28;4491712;31;34032;-77
2023/06/30 08:41:14;;;;;;;;;;;;;;;28.39;34.72;99277.09;4493201;31;33584;-75
2023/06/30 08:43:47;;;;;;;;;;;;;;;28.81;34.56;99266.03;4491044;31;33196;-76
2023/06/30 08:46:16;;;;;;;;;;;;;;;28.72;35.09;99269.56;4496817;31;35660;-74
2023/06/30 08:48:44;;;;;;;;;;;;;;;28.94;35.36;99268.34;4492231;31;34669;-76
2023/06/30 08:51:17;;;;;;;;;;;;;;;29.07;35.74;99273.38;4491316;31;33752;-75
2023/06/30 08:53:45;;;;;;;;;;;;;;;29.22;34.33;99268.38;4490092;31;33030;-75
2023/06/30 08:56:18;;;;;;;;;;;;;;;29.18;31.72;99259.81;4500554;31;33415;-77
2023/06/30 08:58:53;;;;;;;;;;;;;;;28.77;34.60;99267.28;4494046;31;33998;-76
2023/06/30 09:01:23;;;;;;;;;;;;;;;29.15;34.24;99262.78;4499569;31;34235;-77
2023/06/30 09:03:54;;;;;;;;;;;;;;;29.20;32.35;99257.84;4492785;31;31864;-77
2023/06/30 09:06:23;;;;;;;;;;;;;;;29.18;33.04;99259.81;4492235;31;34275;-78
2023/06/30 09:08:54;;;;;;;;;;;;;;;29.42;32.79;99253.87;4498187;31;32689;-78
2023/06/30 09:11:24;;;;;;;;;;;;;;;29.63;31.23;99250.91;4496993;31;33833;-76
2023/06/30 09:13:56;;;;;;;;;;;;;;;29.59;31.91;99252.22;4493234;31;32219;-77
2023/06/30 09:16:25;;;;;;;;;;;;;;;29.68;32.78;99247.81;4492823;31;32924;-78
2023/06/30 09:18:59;;;;;;;;;;;;;;;29.66;32.26;99245.28;4496032;31;34173;-76
2023/06/30 09:21:28;;;;;;;;;;;;;;;29.60;31.49;99237.88;4498544;31;34351;-76
2023/06/30 09:24:00;;;;;;;;;;;;;;;30.01;32.36;99248.94;4478625;31;34056;-75
2023/06/30 09:26:32;;;;;;;;;;;;;;;29.97;31.69;99252.91;4493326;31;34037;-75
2023/06/30 09:29:03;;;;;;;;;;;;;;;30.10;32.32;99242.62;4493509;31;34424;-77
2023/06/30 09:31:32;;;;;;;;;;;;;;;30.25;32.09;99242.06;4498038;31;32833;-75
2023/06/30 09:34:08;;;;;;;;;;;;;;;30.21;32.20;99233.53;4492372;31;33143;-75
2023/06/30 09:36:39;;;;;;;;;;;;;;;30.43;32.38;99231.34;4492921;31;33671;-76
2023/06/30 09:39:15;;;;;;;;;;;;;;;30.45;31.67;99226.66;4493549;31;33428;-75
2023/06/30 09:41:46;;;;;;;;;;;;;;;30.40;31.47;99232.50;4497073;31;34275;-76
2023/06/30 09:44:17;;;;;;;;;;;;;;;30.26;31.43;99220.53;4498109;31;33469;-76
2023/06/30 09:46:47;;;;;;;;;;;;;;;30.25;31.79;99226.00;4494873;31;33950;-75
2023/06/30 09:49:22;;;;;;;;;;;;;;;30.48;31.75;99211.13;4493288;31;34313;-78
2023/06/30 09:51:55;;;;;;;;;;;;;;;30.37;32.20;99227.44;4496347;31;33194;-79
2023/06/30 09:54:25;;;;;;;;;;;;;;;30.71;31.85;99222.13;4491283;31;33091;-77
2023/06/30 09:57:01;;;;;;;;;;;;;;;30.30;31.06;99221.91;4498127;31;34154;-77
2023/06/30 09:59:31;;;;;;;;;;;;;;;30.72;30.88;99228.31;4494186;31;32935;-75
2023/06/30 10:02:01;;;;;;;;;;;;;;;30.54;31.97;99215.84;4495472;31;33830;-78
2023/06/30 10:04:34;;;;;;;;;;;;;;;30.92;31.06;99223.53;4491938;31;32878;-76
2023/06/30 10:07:06;;;;;;;;;;;;;;;31.09;30.96;99224.44;4495319;31;34205;-78
2023/06/30 10:09:41;;;;;;;;;;;;;;;31.22;30.19;99225.66;4497937;31;34775;-76
2023/06/30 10:12:13;;;;;;;;;;;;;;;31.24;30.19;99220.09;4492866;31;34171;-77
2023/06/30 10:14:47;;;;;;;;;;;;;;;31.19;31.35;99223.28;4492321;31;34125;-76
2023/06/30 10:17:17;;;;;;;;;;;;;;;31.28;30.80;99228.66;4492443;31;33666;-78
2023/06/30 10:19:46;;;;;;;;;;;;;;;31.71;29.89;99224.88;4498067;31;33431;-75
2023/06/30 10:22:24;;;;;;;;;;;;;;;31.81;30.65;99222.03;4497430;31;34505;-76
2023/06/30 10:24:53;;;;;;;;;;;;;;;32.01;30.55;99220.69;4491873;31;34496;-78
2023/06/30 10:27:30;;;;;;;;;;;;;;;31.94;29.93;99219.66;4491463;31;34071;-77
2023/06/30 10:30:02;;;;;;;;;;;;;;;32.10;30.95;99225.03;4497154;31;34428;-77
2023/06/30 10:32:32;;;;;;;;;;;;;;;32.03;29.96;99223.22;4498278;31;33452;-77
2023/06/30 10:35:02;;;;;;;;;;;;;;;32.27;28.64;99216.97;4492173;31;32695;-76
2023/06/30 10:37:31;;;;;;;;;;;;;;;32.35;28.99;99224.16;4492291;31;34158;-77
2023/06/30 10:40:08;;;;;;;;;;;;;;;32.40;28.16;99221.78;4493563;31;34929;-79
2023/06/30 10:42:42;;;;;;;;;;;;;;;32.62;27.46;99210.34;4491735;31;34361;-78
2023/06/30 10:45:11;;;;;;;;;;;;;;;32.78;27.76;99219.34;4496924;31;33102;-78
2023/06/30 10:47:40;;;;;;;;;;;;;;;32.68;28.23;99220.38;4492048;31;33881;-79
2023/06/30 10:50:12;;;;;;;;;;;;;;;32.77;26.80;99209.63;4493765;31;33967;-77
2023/06/30 10:52:49;;;;;;;;;;;;;;;32.82;27.03;99207.25;4490916;31;34589;-76
2023/06/30 10:55:21;;;;;;;;;;;;;;;33.12;26.40;99217.16;4494912;31;32870;-78
2023/06/30 10:57:57;;;;;;;;;;;;;;;32.85;25.61;99202.34;4497318;31;34225;-75
2023/06/30 11:00:31;;;;;;;;;;;;;;;32.72;26.47;99196.72;4496892;31;34751;-76
2023/06/30 11:03:05;;;;;;;;;;;;;;;32.90;26.52;99212.56;4492176;31;33925;-76
2023/06/30 11:05:33;;;;;;;;;;;;;;;32.24;27.23;99188.62;4492401;31;34203;-75
2023/06/30 11:08:06;;;;;;;;;;;;;;;32.31;29.06;99189.62;4496677;31;33582;-75
2023/06/30 11:10:37;;;;;;;;;;;;;;;32.63;28.25;99187.03;4496296;31;34199;-74
2023/06/30 11:13:09;;;;;;;;;;;;;;;32.57;27.11;99185.84;4493068;31;33413;-77
2023/06/30 11:15:45;;;;;;;;;;;;;;;32.89;26.39;99186.72;4491625;31;33386;-77
2023/06/30 11:18:21;;;;;;;;;;;;;;;33.30;24.82;99187.34;4490923;31;34425;-76
2023/06/30 11:21:01;;;;;;;;;;;;;;;33.33;24.64;99178.91;4501127;31;34296;-76
2023/06/30 11:23:33;;;;;;;;;;;;;;;33.23;24.42;99175.63;4501833;31;34101;-77
2023/06/30 11:26:11;;;;;;;;;;;;;;;33.54;26.71;99175.56;4491267;31;33823;-76
2023/06/30 11:28:40;;;;;;;;;;;;;;;33.72;26.90;99169.87;4493656;31;34210;-78
2023/06/30 11:31:14;;;;;;;;;;;;;;;33.65;25.99;99168.09;4492315;31;34541;-77
2023/06/30 11:33:48;;;;;;;;;;;;;;;33.24;26.84;99161.16;4497737;31;34299;-76
2023/06/30 11:36:17;;;;;;;;;;;;;;;33.44;28.18;99157.97;4491155;31;33233;-76
2023/06/30 11:38:51;;;;;;;;;;;;;;;33.68;26.96;99151.59;4491770;31;34373;-79
2023/06/30 11:41:20;;;;;;;;;;;;;;;33.74;26.21;99149.00;4493456;31;34034;-78
2023/06/30 11:43:56;;;;;;;;;;;;;;;33.82;26.50;99148.09;4493806;31;32764;-76
2023/06/30 11:46:35;;;;;;;;;;;;;;;33.25;26.68;99141.34;4497376;31;33636;-78
2023/06/30 11:49:04;;;;;;;;;;;;;;;32.93;26.78;99134.28;4493860;31;34668;-75
2023/06/30 11:51:36;;;;;;;;;;;;;;;33.21;27.03;99139.19;4496349;31;33806;-77
2023/06/30 11:54:07;;;;;;;;;;;;;;;33.48;27.53;99138.63;4491616;31;34929;-76
2023/06/30 11:56:39;;;;;;;;;;;;;;;33.51;27.40;99127.47;4493938;31;33065;-76
2023/06/30 11:59:08;;;;;;;;;;;;;;;33.30;26.93;99130.03;4497579;31;33568;-78
2023/06/30 12:01:38;;;;;;;;;;;;;;;33.50;26.72;99119.63;4492998;31;34016;-77
2023/06/30 12:04:33;;;;;;;;;;;;;;;33.94;26.41;99122.38;4491116;31;34207;-75
2023/06/30 12:07:05;;;;;;;;;;;;;;;34.21;26.69;99122.78;4493468;31;33028;-76
2023/06/30 12:09:40;;;;;;;;;;;;;;;33.96;26.60;99124.91;4492009;31;33873;-75
2023/06/30 12:12:28;;;;;;;;;;;;;;;34.31;26.03;99123.38;4496892;31;34244;-77
2023/06/30 12:14:58;;;;;;;;;;;;;;;34.18;25.70;99115.09;4496185;31;34209;-78
2023/06/30 12:17:34;;;;;;;;;;;;;;;34.00;26.24;99105.50;4491353;31;33890;-78
2023/06/30 12:20:04;;;;;;;;;;;;;;;34.31;26.80;99114.44;4495857;31;33698;-78
2023/06/30 12:22:41;;;;;;;;;;;;;;;34.43;25.55;99102.16;4494769;31;33739;-76
2023/06/30 12:25:14;;;;;;;;;;;;;;;34.56;25.75;99106.88;4496934;31;34188;-75
2023/06/30 12:27:43;;;;;;;;;;;;;;;34.53;24.96;99100.00;4495463;31;35543;-78
2023/06/30 12:30:16;;;;;;;;;;;;;;;34.39;25.40;99088.25;4494481;31;34989;-76
2023/06/30 12:32:46;;;;;;;;;;;;;;;34.59;25.71;99096.56;4492440;31;34858;-75
2023/06/30 12:35:16;;;;;;;;;;;;;;;34.82;24.89;99096.44;4492177;31;34262;-76
2023/06/30 12:37:44;;;;;;;;;;;;;;;35.05;25.16;99103.47;4459088;31;1190286;-78
2023/06/30 12:40:14;;;;;;;;;;;;;;;34.96;24.80;99104.63;4492643;31;34501;-76
2023/06/30 12:42:48;;;;;;;;;;;;;;;34.62;24.87;99088.09;4492663;31;33734;-78
2023/06/30 12:45:17;;;;;;;;;;;;;;;34.75;24.18;99089.31;4493539;31;33836;-77
2023/06/30 12:47:48;;;;;;;;;;;;;;;35.29;24.91;99093.37;4496974;31;32759;-76
2023/06/30 12:50:20;;;;;;;;;;;;;;;35.36;24.80;99099.66;4493673;31;34688;-76
2023/06/30 12:52:49;;;;;;;;;;;;;;;35.36;24.36;99097.78;4493265;31;33577;-79
2023/06/30 12:55:21;;;;;;;;;;;;;;;35.63;23.78;99089.91;4493823;31;33739;-77
2023/06/30 12:57:52;;;;;;;;;;;;;;;35.89;22.69;99087.37;4492242;31;33101;-78
2023/06/30 13:00:24;;;;;;;;;;;;;;;35.74;23.52;99085.81;4496602;31;33865;-77
2023/06/30 13:02:54;;;;;;;;;;;;;;;35.65;24.46;99083.28;4495190;31;34592;-76
2023/06/30 13:05:23;;;;;;;;;;;;;;;35.93;24.12;99079.75;4491079;31;34531;-75
2023/06/30 13:07:53;;;;;;;;;;;;;;;36.06;23.44;99065.47;4492463;31;32432;-76
2023/06/30 13:10:28;;;;;;;;;;;;;;;36.27;24.38;99075.34;4497171;31;33977;-79